createdAt,value
2018-12-26T11:08:08.215Z,13.13
2018-12-26T11:10:36.667Z,12.23
2018-12-26T11:13:58.757Z,14.63
2018-12-26T11:15:43.193Z,10.73
2018-12-26T11:18:13.301Z,12.80
2018-12-26T11:20:44.210Z,11.13
2018-12-26T11:23:16.337Z,9.73
2018-12-26T11:25:48.274Z,11.73
2018-12-26T11:28:44.716Z,10.27
2018-12-26T11:31:32.839Z,13.20
2018-12-26T11:34:11.597Z,10.93
2018-12-26T11:36:41.502Z,12.03
2018-12-26T11:39:31.715Z,10.17
2018-12-26T11:42:12.508Z,11.17
2018-12-26T11:44:47.627Z,10.20
2018-12-26T11:50:10.564Z,11.73
2018-12-26T11:52:43.257Z,10.17
2018-12-26T11:55:54.095Z,11.63
2018-12-26T11:58:23.487Z,10.53
2018-12-26T12:00:53.095Z,11.20
2018-12-26T12:03:22.511Z,12.27
2018-12-26T12:05:52.073Z,12.23
2018-12-26T12:08:25.424Z,13.53
2018-12-26T12:10:57.671Z,14.27
2018-12-26T12:13:36.352Z,9.93
2018-12-26T12:16:05.191Z,13.23
2018-12-26T12:18:34.713Z,12.23
2018-12-26T12:21:04.076Z,13.70
2018-12-26T12:23:33.592Z,15.27
2018-12-26T12:26:03.038Z,13.30
2018-12-26T12:28:51.657Z,15.23
2018-12-26T12:31:06.044Z,13.60
2018-12-26T12:33:40.979Z,14.43
2018-12-26T12:36:10.391Z,14.57
2018-12-26T12:38:40.376Z,12.07
2018-12-26T12:41:10.000Z,12.73
2018-12-26T12:43:39.676Z,12.43
2018-12-26T12:46:09.398Z,13.43
2018-12-26T12:48:38.884Z,12.80
2018-12-26T12:51:08.285Z,11.20
2018-12-26T12:53:37.731Z,12.63
2018-12-26T12:56:11.841Z,13.73
2018-12-26T12:58:38.335Z,13.20
2018-12-26T13:01:08.149Z,13.70
2018-12-26T13:03:46.264Z,14.07
2018-12-26T13:06:08.775Z,12.27
2018-12-26T13:08:38.207Z,13.90
2018-12-26T13:11:07.694Z,13.90
2018-12-26T13:13:38.645Z,13.97
2018-12-26T13:16:10.781Z,14.87
2018-12-26T13:18:54.422Z,16.00
2018-12-26T13:21:24.191Z,14.50
2018-12-26T13:23:53.540Z,15.80
2018-12-26T13:26:28.675Z,14.17
2018-12-26T13:28:58.091Z,15.00
2018-12-26T13:31:27.501Z,13.37
2018-12-26T13:33:56.894Z,14.70
2018-12-26T13:36:29.208Z,16.20
2018-12-26T13:38:58.572Z,14.67
2018-12-26T13:41:29.718Z,12.77
2018-12-26T13:43:59.115Z,16.73
2018-12-26T13:46:33.873Z,17.43
2018-12-26T13:49:01.744Z,14.10
2018-12-26T13:51:31.471Z,15.13
2018-12-26T13:54:02.533Z,13.97
2018-12-26T13:56:38.117Z,13.33
2018-12-26T13:59:07.663Z,15.07
2018-12-26T14:01:37.361Z,15.20
2018-12-26T14:04:06.761Z,16.27
2018-12-26T14:06:36.116Z,16.67
2018-12-26T14:09:08.656Z,15.63
2018-12-26T14:11:38.668Z,14.80
2018-12-26T14:14:08.043Z,15.40
2018-12-26T14:16:40.959Z,14.17
2018-12-26T14:19:10.607Z,16.23
2018-12-26T14:21:40.014Z,13.93
2018-12-26T14:24:09.367Z,17.20
2018-12-26T14:26:38.780Z,15.93
2018-12-26T14:29:09.440Z,15.90
2018-12-26T14:31:38.979Z,19.23
2018-12-26T14:34:19.269Z,16.20
2018-12-26T14:36:50.755Z,16.37
2018-12-26T14:39:20.334Z,14.87
2018-12-26T14:41:52.130Z,14.83
2018-12-26T14:44:21.518Z,14.70
2018-12-26T14:46:53.695Z,15.13
2018-12-26T14:49:25.678Z,16.90
2018-12-26T14:51:55.113Z,16.17
2018-12-26T14:54:28.458Z,16.23
2018-12-26T14:56:57.780Z,16.97
2018-12-26T14:59:27.304Z,16.90
2018-12-26T15:01:56.651Z,13.70
2018-12-26T15:04:26.059Z,15.77
2018-12-26T15:07:25.406Z,16.37
2018-12-26T15:09:54.809Z,17.03
2018-12-26T15:12:24.208Z,18.23
2018-12-26T15:14:53.670Z,16.37
2018-12-26T15:17:23.111Z,15.63
2018-12-26T15:19:53.952Z,19.23
2018-12-26T15:22:23.510Z,17.50
2018-12-26T15:24:53.066Z,15.70
2018-12-26T15:27:22.417Z,18.73
2018-12-26T15:30:00.553Z,21.23
2018-12-26T15:32:27.444Z,21.07
2018-12-26T15:35:16.069Z,18.03
2018-12-26T15:37:45.475Z,14.30
2018-12-26T15:40:14.937Z,18.80
2018-12-26T15:42:44.369Z,19.47
2018-12-26T15:45:13.872Z,17.07
2018-12-26T15:47:43.270Z,18.17
2018-12-26T15:50:15.687Z,18.00
2018-12-26T15:52:54.301Z,21.47
2018-12-26T15:55:36.877Z,19.27
2018-12-26T15:58:06.053Z,22.77
2018-12-26T16:00:37.559Z,17.73
2018-12-26T16:03:09.234Z,21.20
2018-12-26T16:05:38.312Z,22.93
2018-12-26T16:08:07.798Z,22.30
2018-12-26T16:10:37.302Z,15.17
2018-12-26T16:13:08.291Z,19.67
2018-12-26T16:15:37.767Z,21.03
2018-12-26T16:18:07.344Z,20.53
2018-12-26T16:20:57.806Z,21.10
2018-12-26T16:23:37.962Z,17.67
2018-12-26T16:30:12.815Z,18.67
2018-12-26T16:32:46.012Z,18.93
2018-12-26T16:35:15.726Z,18.20
2018-12-26T16:37:45.225Z,19.37
2018-12-26T16:40:14.650Z,20.90
2018-12-26T16:42:51.468Z,21.20
2018-12-26T16:45:20.920Z,21.73
2018-12-26T16:47:59.076Z,21.43
2018-12-26T16:50:28.204Z,22.50
2018-12-26T16:52:57.629Z,22.77
2018-12-26T16:55:58.596Z,20.43
2018-12-26T16:58:28.075Z,17.53
2018-12-26T17:00:57.633Z,17.50
2018-12-26T17:03:27.453Z,22.93
2018-12-26T17:05:58.265Z,20.77
2018-12-26T17:08:29.260Z,21.93
2018-12-26T17:11:00.580Z,19.20
2018-12-26T17:13:30.143Z,20.53
2018-12-26T17:16:01.980Z,22.57
2018-12-26T17:18:32.701Z,21.77
2018-12-26T17:21:02.334Z,21.67
2018-12-26T17:23:33.871Z,17.33
2018-12-26T17:26:04.649Z,21.80
2018-12-26T17:28:34.135Z,19.70
2018-12-26T17:31:10.283Z,22.27
2018-12-26T17:33:36.740Z,37.57
2018-12-26T17:36:12.967Z,21.30
2018-12-26T17:38:47.025Z,21.67
2018-12-26T17:41:16.788Z,23.07
2018-12-26T17:43:53.819Z,23.17
2018-12-26T17:46:23.430Z,23.53
2018-12-26T17:48:53.119Z,24.27
2018-12-26T17:51:28.469Z,22.87
2018-12-26T17:54:35.851Z,21.47
2018-12-26T17:57:35.692Z,19.80
2018-12-26T18:00:43.486Z,25.47
2018-12-26T18:03:16.034Z,20.80
2018-12-26T18:05:47.346Z,21.27
2018-12-26T18:08:19.847Z,21.17
2018-12-26T18:10:52.540Z,22.67
2018-12-26T18:13:22.231Z,21.47
2018-12-26T18:15:51.843Z,22.87
2018-12-26T18:18:23.520Z,19.77
2018-12-26T18:20:52.954Z,21.57
2018-12-26T18:23:22.407Z,24.03
2018-12-26T18:25:51.955Z,27.03
2018-12-26T18:28:21.513Z,33.83
2018-12-26T18:30:56.157Z,27.50
2018-12-26T18:33:53.121Z,23.40
2018-12-26T18:36:22.691Z,27.97
2018-12-26T18:38:56.433Z,26.07
2018-12-26T18:41:27.441Z,20.80
2018-12-26T18:43:57.129Z,19.57
2018-12-26T18:46:26.782Z,21.00
2018-12-26T18:48:56.406Z,21.90
2018-12-26T18:51:26.164Z,21.60
2018-12-26T18:53:55.875Z,21.80
2018-12-26T18:56:25.377Z,20.57
2018-12-26T18:58:55.341Z,21.77
2018-12-26T19:01:30.693Z,21.83
2018-12-26T19:04:03.160Z,21.70
2018-12-26T19:06:43.415Z,23.53
2018-12-26T19:09:46.518Z,23.43
2018-12-26T19:12:15.923Z,23.43
2018-12-26T19:14:47.319Z,23.20
2018-12-26T19:17:41.815Z,23.03
2018-12-26T19:20:14.005Z,21.97
2018-12-26T19:22:43.754Z,20.23
2018-12-26T19:25:16.172Z,22.03
2018-12-26T19:27:45.699Z,23.80
2018-12-26T19:30:32.796Z,22.37
2018-12-26T19:33:02.226Z,27.70
2018-12-26T19:35:40.330Z,23.90
2018-12-26T19:38:12.763Z,28.33
2018-12-26T19:40:42.287Z,22.97
2018-12-26T19:43:11.904Z,24.07
2018-12-26T19:45:41.613Z,23.67
2018-12-26T19:48:11.322Z,23.30
2018-12-26T19:50:52.720Z,23.87
2018-12-26T19:54:11.965Z,25.37
2018-12-26T19:56:42.158Z,26.73
2018-12-26T19:59:17.642Z,26.50
2018-12-26T20:02:11.293Z,25.23
2018-12-26T20:05:08.402Z,22.73
2018-12-26T20:07:38.268Z,20.20
2018-12-26T20:10:09.443Z,20.53
2018-12-26T20:12:39.173Z,18.27
2018-12-26T20:15:26.030Z,23.73
2018-12-26T20:17:51.351Z,22.43
2018-12-26T20:20:30.652Z,24.57
2018-12-26T20:23:00.426Z,24.57
2018-12-26T20:25:32.267Z,25.27
2018-12-26T20:28:01.880Z,27.63
2018-12-26T20:30:31.338Z,22.57
2018-12-26T20:33:00.896Z,21.87
2018-12-26T20:35:30.766Z,23.17
2018-12-26T20:38:00.366Z,22.60
2018-12-26T20:40:46.871Z,22.47
2018-12-26T20:43:16.541Z,20.70
2018-12-26T20:45:45.987Z,21.83
2018-12-26T20:48:23.711Z,21.33
2018-12-26T20:50:53.415Z,24.63
2018-12-26T20:53:23.039Z,24.00
2018-12-26T20:55:52.735Z,25.00
2018-12-26T20:58:22.328Z,23.03
2018-12-26T21:00:54.702Z,21.63
2018-12-26T21:03:24.412Z,24.13
2018-12-26T21:06:22.683Z,22.83
2018-12-26T21:08:52.405Z,19.83
2018-12-26T21:11:22.245Z,21.47
2018-12-26T21:13:54.914Z,21.20
2018-12-26T21:16:27.107Z,20.03
2018-12-26T21:19:50.228Z,16.13
2018-12-26T21:22:49.348Z,19.33
2018-12-26T21:25:51.787Z,17.70
2018-12-26T21:29:27.641Z,22.43
2018-12-26T21:31:58.522Z,19.53
2018-12-26T21:34:28.277Z,19.93
2018-12-26T21:36:57.809Z,19.60
2018-12-26T21:39:47.538Z,19.70
2018-12-26T21:42:12.761Z,21.80
2018-12-26T21:44:45.108Z,20.63
2018-12-26T21:51:08.701Z,22.40
2018-12-26T21:53:39.586Z,20.93
2018-12-26T21:56:09.147Z,20.87
2018-12-26T21:58:42.883Z,22.50
2018-12-26T22:37:20.209Z,36.13
2018-12-26T22:40:03.076Z,34.33
2018-12-26T22:42:35.712Z,26.97
2018-12-26T22:45:05.826Z,27.03
2018-12-26T22:47:35.638Z,26.50
2018-12-26T22:51:44.691Z,22.07
2018-12-26T22:53:28.716Z,19.53
2018-12-26T22:55:46.032Z,19.90
2018-12-26T23:01:43.734Z,20.90
2018-12-26T23:09:46.144Z,18.00
2018-12-26T23:10:26.918Z,18.47
2018-12-26T23:14:15.338Z,16.00
2018-12-26T23:16:32.955Z,15.47
2018-12-26T23:19:08.779Z,16.87
